createdAt,value
2022-12-14T00:01:48.937Z,43.47
2022-12-14T00:04:17.579Z,47.08
2022-12-14T00:06:45.181Z,43.87
2022-12-14T00:09:12.575Z,35.92
2022-12-14T00:11:40.252Z,31.75
2022-12-14T00:14:07.697Z,28.73
2022-12-14T00:16:35.304Z,26.02
2022-12-14T00:19:05.192Z,22.90
2022-12-14T00:21:33.738Z,21.30
2022-12-14T00:24:01.151Z,22.25
2022-12-14T00:26:31.415Z,19.85
2022-12-14T00:29:00.647Z,21.02
2022-12-14T00:31:28.530Z,22.35
2022-12-14T00:33:56.155Z,22.77
2022-12-14T00:36:23.924Z,22.00
2022-12-14T00:38:51.340Z,22.42
2022-12-14T00:41:18.944Z,21.85
2022-12-14T00:43:49.422Z,21.60
2022-12-14T00:46:17.989Z,20.58
2022-12-14T00:48:46.377Z,22.60
2022-12-14T00:51:15.083Z,21.92
2022-12-14T00:53:44.290Z,22.13
2022-12-14T00:56:12.156Z,21.23
2022-12-14T00:58:39.506Z,21.10
2022-12-14T01:01:08.840Z,23.20
2022-12-14T01:03:36.492Z,22.13
2022-12-14T01:06:04.041Z,22.13
2022-12-14T01:08:35.693Z,21.62
2022-12-14T01:13:32.127Z,22.30
2022-12-14T01:16:03.755Z,22.23
2022-12-14T01:18:33.381Z,21.58
2022-12-14T01:21:18.439Z,22.42
2022-12-14T01:23:47.276Z,22.75
2022-12-14T01:26:16.191Z,21.75
2022-12-14T01:28:44.554Z,23.38
2022-12-14T01:31:17.253Z,21.87
2022-12-14T01:36:15.668Z,22.27
2022-12-14T01:38:43.696Z,21.15
2022-12-14T01:41:41.684Z,22.08
2022-12-14T01:44:09.156Z,21.12
2022-12-14T01:46:51.993Z,20.83
2022-12-14T01:49:41.107Z,21.52
2022-12-14T01:52:17.599Z,20.83
2022-12-14T01:55:21.980Z,21.40
2022-12-14T01:58:03.509Z,19.87
2022-12-14T02:00:31.477Z,20.90
2022-12-14T02:03:06.752Z,20.02
2022-12-14T02:05:35.644Z,19.85
2022-12-14T02:08:03.690Z,21.80
2022-12-14T02:10:32.325Z,19.77
2022-12-14T02:13:32.997Z,20.58
2022-12-14T02:16:00.609Z,18.80
2022-12-14T02:18:30.879Z,19.33
2022-12-14T02:21:21.813Z,20.80
2022-12-14T02:23:58.483Z,20.85
2022-12-14T02:26:31.436Z,20.70
2022-12-14T02:29:22.664Z,22.30
2022-12-14T02:32:08.256Z,19.50
2022-12-14T02:34:51.105Z,21.40
2022-12-14T02:37:24.822Z,21.92
2022-12-14T02:40:02.638Z,21.98
2022-12-14T02:43:07.871Z,21.15
2022-12-14T02:45:39.693Z,21.58
2022-12-14T02:48:13.609Z,19.53
2022-12-14T02:50:50.979Z,20.55
2022-12-14T02:54:00.974Z,20.98
2022-12-14T02:56:40.560Z,19.85
2022-12-14T02:59:08.750Z,20.27
2022-12-14T03:01:37.280Z,21.12
2022-12-14T03:04:05.058Z,19.62
2022-12-14T03:06:32.418Z,20.05
2022-12-14T03:09:04.287Z,20.60
2022-12-14T03:11:36.778Z,20.00
2022-12-14T03:14:15.594Z,19.87
2022-12-14T03:16:45.892Z,19.75
2022-12-14T03:19:29.078Z,19.02
2022-12-14T03:21:59.606Z,19.98
2022-12-14T03:24:34.403Z,19.77
2022-12-14T03:27:08.059Z,19.92
2022-12-14T03:29:45.737Z,20.00
2022-12-14T03:32:16.634Z,19.02
2022-12-14T03:34:58.485Z,19.55
2022-12-14T03:37:38.024Z,18.83
2022-12-14T03:40:10.867Z,19.50
2022-12-14T03:42:51.275Z,20.60
2022-12-14T03:45:23.218Z,20.77
2022-12-14T03:47:50.502Z,20.92
2022-12-14T03:50:25.266Z,21.12
2022-12-14T03:53:08.507Z,20.48
2022-12-14T03:55:49.056Z,21.10
2022-12-14T03:58:35.286Z,20.48
2022-12-14T04:01:05.564Z,21.15
2022-12-14T04:03:45.262Z,20.33
2022-12-14T04:06:46.457Z,20.85
2022-12-14T04:09:43.097Z,20.83
2022-12-14T04:12:35.684Z,21.30
2022-12-14T04:18:16.970Z,20.75
2022-12-14T04:20:51.963Z,20.88
2022-12-14T04:23:51.058Z,21.17
2022-12-14T04:26:23.068Z,21.98
2022-12-14T04:29:16.505Z,21.05
2022-12-14T04:31:55.835Z,22.70
2022-12-14T04:34:24.702Z,21.62
2022-12-14T04:36:58.564Z,22.08
2022-12-14T04:39:34.818Z,21.98
2022-12-14T04:42:05.186Z,21.35
2022-12-14T04:44:36.387Z,22.30
2022-12-14T04:47:07.091Z,21.02
2022-12-14T04:49:57.324Z,20.23
2022-12-14T04:52:30.339Z,21.77
2022-12-14T04:55:18.538Z,21.27
2022-12-14T04:57:59.562Z,20.58
2022-12-14T05:00:27.674Z,20.92
2022-12-14T05:03:40.874Z,21.23
2022-12-14T05:06:18.417Z,20.33
2022-12-14T05:08:55.240Z,22.52
2022-12-14T05:11:52.580Z,21.17
2022-12-14T05:14:21.286Z,20.45
2022-12-14T05:16:49.646Z,20.85
2022-12-14T05:19:17.633Z,19.60
2022-12-14T05:21:47.785Z,19.02
2022-12-14T05:24:16.284Z,19.50
2022-12-14T05:26:44.240Z,18.83
2022-12-14T05:29:11.930Z,19.45
2022-12-14T05:31:39.808Z,20.25
2022-12-14T05:34:07.419Z,18.73
2022-12-14T05:36:35.479Z,18.67
2022-12-14T05:39:02.833Z,18.73
2022-12-14T05:41:30.456Z,18.20
2022-12-14T05:43:57.764Z,17.45
2022-12-14T05:46:25.209Z,17.40
2022-12-14T05:48:52.869Z,18.35
2022-12-14T05:51:20.333Z,16.75
2022-12-14T05:53:47.727Z,16.52
2022-12-14T05:56:15.499Z,16.73
2022-12-14T05:58:42.899Z,16.92
2022-12-14T06:01:18.492Z,16.48
2022-12-14T06:03:47.489Z,16.80
2022-12-14T06:06:15.247Z,15.82
2022-12-14T06:08:44.760Z,16.17
2022-12-14T06:11:21.430Z,15.93
2022-12-14T06:13:49.461Z,15.32
2022-12-14T06:16:20.221Z,16.83
2022-12-14T06:18:48.948Z,15.93
2022-12-14T06:21:18.431Z,17.05
2022-12-14T06:23:46.257Z,15.40
2022-12-14T06:26:14.621Z,16.20
2022-12-14T06:28:42.433Z,15.85
2022-12-14T06:31:16.411Z,15.30
2022-12-14T06:33:44.347Z,15.38
2022-12-14T06:36:22.182Z,15.65
2022-12-14T06:38:50.707Z,16.85
2022-12-14T06:41:18.319Z,15.25
2022-12-14T06:43:45.720Z,14.95
2022-12-14T06:46:19.712Z,15.60
2022-12-14T06:48:54.732Z,14.63
2022-12-14T06:51:23.695Z,14.40
2022-12-14T06:53:55.987Z,14.38
2022-12-14T06:56:26.115Z,14.45
2022-12-14T06:58:56.297Z,14.27
2022-12-14T07:01:25.364Z,14.55
2022-12-14T07:03:55.187Z,15.57
2022-12-14T07:06:24.048Z,14.38
2022-12-14T07:08:57.241Z,15.43
2022-12-14T07:11:25.328Z,14.48
2022-12-14T07:13:53.609Z,13.90
2022-12-14T07:16:23.578Z,14.95
2022-12-14T07:18:51.634Z,14.50
2022-12-14T07:21:20.131Z,14.65
2022-12-14T07:23:48.478Z,13.88
2022-12-14T07:26:24.717Z,15.18
2022-12-14T07:28:52.905Z,17.60
2022-12-14T07:31:25.312Z,16.95
2022-12-14T07:33:55.084Z,16.37
2022-12-14T07:38:51.883Z,16.52
2022-12-14T07:41:23.001Z,16.62
2022-12-14T07:43:52.002Z,17.25
2022-12-14T07:46:22.007Z,15.93
2022-12-14T07:48:52.386Z,15.57
2022-12-14T07:51:22.623Z,15.68
2022-12-14T07:53:50.678Z,16.77
2022-12-14T07:56:24.865Z,16.25
2022-12-14T07:58:54.342Z,17.20
2022-12-14T08:01:26.698Z,17.15
2022-12-14T08:03:58.236Z,14.80
2022-12-14T08:06:28.087Z,15.82
2022-12-14T08:08:56.411Z,15.68
2022-12-14T08:11:24.458Z,15.73
2022-12-14T08:14:00.461Z,15.82
2022-12-14T08:16:28.867Z,16.33
2022-12-14T08:18:57.528Z,15.93
2022-12-14T08:21:25.146Z,16.50
2022-12-14T08:23:54.503Z,15.60
2022-12-14T08:26:22.523Z,17.90
2022-12-14T08:28:50.155Z,16.52
2022-12-14T08:31:20.001Z,16.35
2022-12-14T08:33:47.746Z,15.25
2022-12-14T08:36:17.846Z,15.60
2022-12-14T08:38:45.550Z,16.10
2022-12-14T08:41:14.278Z,15.00
2022-12-14T08:43:54.921Z,15.05
2022-12-14T08:46:23.968Z,15.43
2022-12-14T08:48:52.941Z,15.82
2022-12-14T08:51:21.392Z,14.75
2022-12-14T08:53:49.184Z,13.93
2022-12-14T08:56:20.091Z,14.40
2022-12-14T08:58:47.630Z,15.70
2022-12-14T09:01:18.415Z,15.50
2022-12-14T09:03:46.604Z,16.30
2022-12-14T09:06:16.175Z,16.08
2022-12-14T09:08:44.188Z,15.60
2022-12-14T09:11:13.081Z,15.00
2022-12-14T09:13:40.883Z,15.55
2022-12-14T09:16:12.959Z,15.52
2022-12-14T09:18:40.581Z,15.70
2022-12-14T09:21:09.114Z,15.35
2022-12-14T09:23:37.168Z,14.27
2022-12-14T09:26:05.545Z,14.85
2022-12-14T09:28:36.461Z,15.73
2022-12-14T09:31:06.941Z,14.25
2022-12-14T09:33:34.998Z,14.35
2022-12-14T09:36:07.565Z,14.77
2022-12-14T09:38:37.090Z,15.05
2022-12-14T09:41:07.656Z,13.95
2022-12-14T09:43:43.956Z,15.30
2022-12-14T09:46:40.957Z,14.75
2022-12-14T09:49:23.294Z,14.65
2022-12-14T09:51:51.909Z,14.77
2022-12-14T09:54:23.013Z,14.60
2022-12-14T09:56:50.499Z,14.98
2022-12-14T09:59:17.912Z,15.60
2022-12-14T10:02:32.858Z,15.80
2022-12-14T10:05:19.556Z,14.15
2022-12-14T10:07:49.582Z,14.45
2022-12-14T10:10:24.892Z,15.02
2022-12-14T10:13:04.252Z,15.65
2022-12-14T10:15:43.071Z,16.23
2022-12-14T10:19:00.957Z,14.35
2022-12-14T10:21:23.026Z,14.93
2022-12-14T10:24:02.831Z,14.23
2022-12-14T10:26:34.812Z,15.65
2022-12-14T10:29:12.260Z,15.35
2022-12-14T10:31:57.747Z,15.27
2022-12-14T10:34:29.228Z,15.65
2022-12-14T10:37:06.945Z,14.20
2022-12-14T10:39:49.434Z,14.80
2022-12-14T10:42:26.439Z,15.77
2022-12-14T10:48:30.104Z,15.15
2022-12-14T10:51:01.976Z,18.67
2022-12-14T10:53:42.045Z,15.38
2022-12-14T10:56:17.584Z,14.18
2022-12-14T10:58:45.271Z,14.75
2022-12-14T11:01:14.809Z,14.60
2022-12-14T11:03:43.844Z,13.30
2022-12-14T11:06:16.634Z,14.73
2022-12-14T11:11:24.265Z,13.40
2022-12-14T11:14:07.895Z,13.85
2022-12-14T11:16:41.731Z,14.13
2022-12-14T11:19:17.800Z,13.73
2022-12-14T11:21:46.452Z,13.10
2022-12-14T11:24:26.688Z,14.10
2022-12-14T11:26:59.227Z,12.82
2022-12-14T11:29:38.526Z,13.23
2022-12-14T11:32:06.407Z,13.43
2022-12-14T11:34:39.361Z,13.23
2022-12-14T11:37:28.163Z,12.88
2022-12-14T11:39:57.121Z,13.38
2022-12-14T11:42:25.906Z,12.73
2022-12-14T11:44:53.886Z,12.43
2022-12-14T11:47:23.780Z,14.20
2022-12-14T11:49:55.297Z,13.50
2022-12-14T11:52:37.914Z,14.15
2022-12-14T11:55:23.047Z,13.57
2022-12-14T11:57:55.390Z,13.60
2022-12-14T12:00:40.263Z,12.68
2022-12-14T12:03:23.492Z,13.27
2022-12-14T12:05:51.808Z,13.30
2022-12-14T12:08:31.799Z,13.48
2022-12-14T12:11:02.547Z,14.15
2022-12-14T12:13:36.377Z,13.20
2022-12-14T12:16:16.361Z,13.73
2022-12-14T12:18:50.647Z,14.02
2022-12-14T12:21:22.200Z,14.30
2022-12-14T12:24:07.068Z,12.73
2022-12-14T12:26:52.535Z,13.62
2022-12-14T12:29:58.786Z,14.55
2022-12-14T12:32:50.531Z,13.88
2022-12-14T12:35:25.150Z,14.98
2022-12-14T12:37:58.980Z,15.52
2022-12-14T12:40:35.584Z,13.93
2022-12-14T12:43:13.495Z,12.75
2022-12-14T12:45:45.642Z,12.95
2022-12-14T12:48:37.725Z,13.80
2022-12-14T12:51:12.419Z,13.70
2022-12-14T12:53:45.717Z,13.57
2022-12-14T12:56:27.108Z,13.50
2022-12-14T12:58:55.239Z,11.30
2022-12-14T13:01:33.648Z,13.07
2022-12-14T13:04:12.351Z,13.52
2022-12-14T13:06:48.190Z,14.55
2022-12-14T13:09:21.282Z,13.45
2022-12-14T13:11:49.195Z,13.77
2022-12-14T13:14:30.472Z,14.48
2022-12-14T13:17:04.417Z,12.35
2022-12-14T13:19:51.666Z,14.13
2022-12-14T13:22:27.224Z,14.07
2022-12-14T13:24:59.202Z,13.90
2022-12-14T13:27:36.515Z,13.20
2022-12-14T13:30:32.299Z,14.27
2022-12-14T13:33:26.415Z,14.20
2022-12-14T13:36:19.397Z,13.32
2022-12-14T13:39:34.638Z,13.55
2022-12-14T13:42:23.883Z,14.00
2022-12-14T13:45:03.003Z,13.70
2022-12-14T13:47:43.727Z,14.20
2022-12-14T13:50:35.926Z,13.62
2022-12-14T13:55:32.547Z,14.18
2022-12-14T13:58:17.651Z,13.65
2022-12-14T14:00:45.880Z,14.07
2022-12-14T14:03:56.565Z,13.62
2022-12-14T14:06:41.261Z,14.23
2022-12-14T14:09:38.353Z,15.15
2022-12-14T14:12:24.124Z,13.30
2022-12-14T14:14:53.982Z,13.20
2022-12-14T14:17:26.561Z,12.90
2022-12-14T14:19:56.179Z,12.68
2022-12-14T14:22:27.528Z,14.30
2022-12-14T14:25:11.230Z,15.18
2022-12-14T14:27:40.171Z,13.32
2022-12-14T14:30:29.135Z,14.30
2022-12-14T14:33:07.584Z,15.23
2022-12-14T14:35:44.304Z,16.35
2022-12-14T14:38:26.864Z,14.80
2022-12-14T14:41:16.525Z,15.02
2022-12-14T14:43:51.541Z,14.15
2022-12-14T14:46:23.145Z,15.15
2022-12-14T14:48:53.398Z,16.35
2022-12-14T14:51:25.297Z,14.73
2022-12-14T14:55:15.820Z,15.37
2022-12-14T14:57:35.246Z,15.15
2022-12-14T15:00:05.222Z,16.08
2022-12-14T15:02:38.038Z,16.50
2022-12-14T15:05:33.253Z,16.10
2022-12-14T15:07:56.719Z,15.98
2022-12-14T15:10:39.139Z,15.18
2022-12-14T15:13:09.378Z,15.10
2022-12-14T15:15:40.039Z,15.52
2022-12-14T15:18:34.166Z,16.10
2022-12-14T15:21:04.977Z,17.25
2022-12-14T15:23:37.852Z,16.58
2022-12-14T15:26:16.595Z,15.60
2022-12-14T15:28:50.377Z,18.37
2022-12-14T15:31:19.568Z,15.95
2022-12-14T15:33:47.994Z,16.60
2022-12-14T15:36:17.436Z,15.70
2022-12-14T15:38:55.532Z,16.62
2022-12-14T15:41:25.704Z,15.88
2022-12-14T15:43:59.400Z,17.62
2022-12-14T15:46:30.418Z,16.48
2022-12-14T15:49:10.785Z,16.40
2022-12-14T15:51:40.690Z,16.55
2022-12-14T15:54:15.432Z,17.90
2022-12-14T15:56:48.295Z,15.98
2022-12-14T15:59:22.426Z,16.17
2022-12-14T16:02:06.623Z,16.15
2022-12-14T16:04:36.465Z,16.30
2022-12-14T16:07:09.468Z,16.85
2022-12-14T16:09:50.132Z,16.62
2022-12-14T16:12:38.250Z,16.05
2022-12-14T16:15:23.989Z,17.50
2022-12-14T16:18:00.699Z,16.58
2022-12-14T16:20:37.186Z,16.75
2022-12-14T16:23:13.635Z,17.20
2022-12-14T16:25:59.336Z,17.37
2022-12-14T16:28:28.232Z,15.82
2022-12-14T16:31:06.011Z,16.50
2022-12-14T16:33:35.277Z,16.52
2022-12-14T16:36:02.867Z,17.10
2022-12-14T16:38:31.056Z,16.60
2022-12-14T16:41:02.451Z,18.25
2022-12-14T16:43:36.179Z,17.40
2022-12-14T16:46:03.498Z,17.77
2022-12-14T16:48:37.289Z,17.67
2022-12-14T16:51:32.639Z,17.45
2022-12-14T16:54:14.280Z,17.77
2022-12-14T16:56:45.419Z,16.52
2022-12-14T16:59:27.346Z,16.87
2022-12-14T17:01:55.127Z,17.35
2022-12-14T17:04:23.227Z,18.90
2022-12-14T17:06:55.675Z,17.45
2022-12-14T17:11:57.942Z,16.80
2022-12-14T17:14:25.599Z,17.23
2022-12-14T17:17:01.331Z,15.88
2022-12-14T17:19:38.927Z,16.25
2022-12-14T17:22:12.528Z,16.62
2022-12-14T17:24:40.145Z,15.98
2022-12-14T17:27:07.522Z,15.65
2022-12-14T17:29:35.099Z,16.27
2022-12-14T17:32:02.813Z,17.08
2022-12-14T17:34:30.437Z,17.20
2022-12-14T17:36:57.926Z,16.27
2022-12-14T17:39:25.596Z,18.02
2022-12-14T17:41:53.109Z,17.25
2022-12-14T17:44:21.604Z,16.10
2022-12-14T17:46:49.977Z,16.87
2022-12-14T17:49:33.795Z,16.30
2022-12-14T17:52:06.035Z,17.23
2022-12-14T17:54:34.183Z,17.17
2022-12-14T17:57:02.096Z,17.42
2022-12-14T17:59:29.567Z,16.75
2022-12-14T18:01:57.075Z,17.98
2022-12-14T18:04:24.799Z,17.50
2022-12-14T18:06:52.357Z,16.23
2022-12-14T18:09:19.800Z,15.50
2022-12-14T18:12:14.367Z,27.08
2022-12-14T18:14:34.945Z,20.83
2022-12-14T18:17:06.600Z,16.15
2022-12-14T18:19:37.251Z,16.55
2022-12-14T18:22:05.696Z,15.90
2022-12-14T18:24:33.316Z,15.05
2022-12-14T18:27:00.679Z,16.15
2022-12-14T18:29:28.344Z,15.10
2022-12-14T18:31:55.776Z,14.90
2022-12-14T18:34:23.206Z,15.73
2022-12-14T18:36:50.871Z,16.35
2022-12-14T18:39:18.371Z,15.73
2022-12-14T18:41:45.739Z,16.83
2022-12-14T18:44:13.351Z,17.50
2022-12-14T18:46:40.742Z,16.25
2022-12-14T18:49:08.179Z,17.83
2022-12-14T18:51:35.819Z,19.87
2022-12-14T18:54:03.863Z,18.45
2022-12-14T18:56:31.274Z,17.75
2022-12-14T18:59:00.374Z,20.08
2022-12-14T19:01:28.259Z,18.37
2022-12-14T19:03:57.907Z,18.55
2022-12-14T19:06:44.482Z,17.55
2022-12-14T19:09:14.427Z,17.85
2022-12-14T19:11:43.862Z,19.85
2022-12-14T19:14:11.701Z,20.55
2022-12-14T19:16:39.139Z,19.95
2022-12-14T19:19:07.038Z,16.73
2022-12-14T19:21:34.432Z,16.52
2022-12-14T19:24:01.847Z,16.15
2022-12-14T19:26:30.662Z,17.33
2022-12-14T19:28:58.751Z,18.00
2022-12-14T19:31:26.480Z,15.57
2022-12-14T19:33:54.390Z,15.35
2022-12-14T19:36:21.877Z,16.08
2022-12-14T19:38:49.742Z,15.18
2022-12-14T19:41:20.126Z,15.48
2022-12-14T19:43:47.621Z,17.45
2022-12-14T19:46:16.070Z,16.12
2022-12-14T19:48:44.300Z,15.68
2022-12-14T19:51:12.681Z,15.48
2022-12-14T19:53:42.605Z,15.48
2022-12-14T19:56:11.015Z,15.98
2022-12-14T19:58:38.371Z,15.63
2022-12-14T20:01:10.110Z,16.10
2022-12-14T20:03:38.780Z,14.48
2022-12-14T20:06:07.090Z,15.38
2022-12-14T20:08:35.297Z,15.13
2022-12-14T20:11:07.458Z,14.98
2022-12-14T20:13:35.110Z,16.40
2022-12-14T20:16:02.957Z,15.13
2022-12-14T20:18:31.094Z,14.60
2022-12-14T20:21:06.919Z,15.20
2022-12-14T20:23:35.964Z,14.77
2022-12-14T20:26:05.359Z,14.55
2022-12-14T20:28:33.478Z,16.50
2022-12-14T20:31:01.351Z,16.33
2022-12-14T20:33:30.793Z,15.68
2022-12-14T20:35:58.639Z,16.00
2022-12-14T20:38:26.329Z,19.12
2022-12-14T20:40:53.715Z,18.02
2022-12-14T20:43:21.164Z,17.37
2022-12-14T20:45:48.747Z,15.98
2022-12-14T20:48:16.099Z,17.12
2022-12-14T20:50:43.959Z,15.38
2022-12-14T20:53:18.127Z,16.37
2022-12-14T20:55:45.473Z,17.50
2022-12-14T20:58:12.899Z,15.80
2022-12-14T21:00:40.573Z,17.58
2022-12-14T21:03:08.095Z,16.08
2022-12-14T21:05:40.629Z,15.23
2022-12-14T21:08:08.476Z,16.50
2022-12-14T21:10:35.915Z,15.80
2022-12-14T21:13:07.639Z,16.70
2022-12-14T21:15:35.668Z,15.38
2022-12-14T21:18:03.531Z,14.85
2022-12-14T21:20:30.859Z,16.62
2022-12-14T21:22:58.539Z,16.83
2022-12-14T21:25:25.882Z,16.58
2022-12-14T21:27:53.330Z,16.17
2022-12-14T21:30:21.008Z,16.45
2022-12-14T21:32:48.496Z,17.48
2022-12-14T21:35:18.341Z,17.42
2022-12-14T21:37:45.971Z,17.10
2022-12-14T21:40:33.222Z,18.85
2022-12-14T21:43:00.884Z,17.35
2022-12-14T21:45:28.265Z,17.35
2022-12-14T21:47:55.847Z,16.23
2022-12-14T21:50:23.455Z,15.63
2022-12-14T21:52:50.787Z,15.65
2022-12-14T21:55:18.124Z,14.98
2022-12-14T21:58:04.052Z,15.57
2022-12-14T22:00:31.351Z,15.25
2022-12-14T22:02:59.026Z,14.90
2022-12-14T22:05:26.423Z,16.37
2022-12-14T22:07:54.000Z,15.27
2022-12-14T22:10:25.039Z,15.75
2022-12-14T22:12:53.024Z,16.25
2022-12-14T22:15:20.485Z,16.58
2022-12-14T22:17:49.906Z,16.80
2022-12-14T22:20:17.310Z,17.20
2022-12-14T22:22:44.845Z,17.73
2022-12-14T22:25:12.467Z,17.55
2022-12-14T22:27:40.027Z,18.35
2022-12-14T22:30:08.586Z,18.70
2022-12-14T22:32:36.256Z,18.40
2022-12-14T22:35:03.824Z,19.52
2022-12-14T22:37:31.150Z,18.75
2022-12-14T22:39:58.751Z,17.80
2022-12-14T22:42:26.101Z,18.10
2022-12-14T22:44:54.520Z,18.15
2022-12-14T22:47:22.105Z,18.42
2022-12-14T22:49:49.418Z,17.83
2022-12-14T22:52:22.899Z,17.67
2022-12-14T22:54:54.228Z,18.20
2022-12-14T22:57:22.421Z,17.45
2022-12-14T22:59:57.068Z,17.35
2022-12-14T23:02:25.030Z,16.90
2022-12-14T23:04:52.553Z,17.75
2022-12-14T23:07:19.921Z,16.90
2022-12-14T23:10:05.892Z,16.95
2022-12-14T23:12:51.932Z,16.17
2022-12-14T23:15:37.887Z,17.87
2022-12-14T23:18:25.360Z,17.23
2022-12-14T23:21:11.941Z,16.33
2022-12-14T23:24:03.330Z,17.08
2022-12-14T23:26:49.850Z,17.67
2022-12-14T23:29:35.811Z,16.90
2022-12-14T23:32:22.347Z,17.00
2022-12-14T23:35:08.769Z,17.02
2022-12-14T23:37:54.722Z,16.45
2022-12-14T23:40:40.679Z,17.05
2022-12-14T23:43:28.948Z,18.12
2022-12-14T23:46:15.110Z,17.33
2022-12-14T23:49:01.591Z,17.65
2022-12-14T23:51:47.331Z,18.12
2022-12-14T23:54:33.920Z,17.40
2022-12-14T23:57:20.428Z,16.65
